Flight Track Log - Related Links

Times and Time Zones

All times are in EDT time to prevent confusion due to time zone crossing. See the N816BG flight status page for this flight to view local times or setup timezone preferences in your user account.

Time Position Orientation Groundspeed Altitude Reporting Facility
EDT Latitude Longitude Course Direction KTS MPH feet Rate Location/Type
Wed 11:14:21 AM 44.7394 -85.4567 104° East 248 285 3,900  Level Minneapolis Center
Wed 11:15:23 AM 44.7206 -85.3475 104° East 277 319 6,400 2,710 Climbing Minneapolis Center
Wed 11:16:25 AM 44.6542 -85.2658 139° Southeast 316 364 9,500 3,048 Climbing Minneapolis Center
Wed 11:17:27 AM 44.5717 -85.2289 162° South 311 358 12,700 3,194 Climbing Minneapolis Center
Wed 11:18:29 AM 44.4731 -85.1781 160° South 313 360 16,100 2,537 Climbing Minneapolis Center
Wed 11:19:30 AM 44.3861 -85.1328 160° South 325 374 17,900 1,659 Climbing Minneapolis Center
Wed 11:20:32 AM 44.2956 -85.0892 161° South 338 389 19,500 1,548 Climbing Minneapolis Center
Wed 11:21:34 AM 44.2019 -85.0419 160° South 351 404 21,100 1,500 Climbing Minneapolis Center
Wed 11:22:36 AM 44.1064 -84.9936 160° South 360 414 22,600 1,355 Climbing Minneapolis Center
Wed 11:23:38 AM 44.0106 -84.9456 160° South 372 428 23,900 1,366 Climbing Minneapolis Center
Wed 11:24:39 AM 43.8869 -84.8844 160° South 386 444 25,400 1,317 Climbing Minneapolis Center
Wed 11:25:41 AM 43.7814 -84.8328 161° South 397 457 26,600 1,065 Climbing Minneapolis Center
Wed 11:26:43 AM 43.6761 -84.7789 160° South 399 459 27,600 1,065 Climbing Minneapolis Center
Wed 11:27:45 AM 43.5683 -84.7269 161° South 405 466 28,800 1,220 Climbing Minneapolis Center
Wed 11:28:46 AM 43.4603 -84.6739 160° South 406 467 30,100 1,073 Climbing Minneapolis Center
Wed 11:29:48 AM 43.3542 -84.6214 160° South 406 467 31,000 435 Climbing Minneapolis Center
Wed 11:30:50 AM 43.2433 -84.5678 161° South 414 476 31,000  Level Minneapolis Center
Wed 11:31:52 AM 43.1267 -84.5117 161° South 433 498 31,000  Level Minneapolis Center
Wed 11:32:53 AM 42.9817 -84.4411 160° South 447 514 31,000  Level Minneapolis Center
Wed 11:33:55 AM 42.8664 -84.3864 161° South 452 520 31,000  Level Minneapolis Center
Wed 11:35:12 AM 42.7125 -84.3122 160° South 469 540 31,000  Level Cleveland Center
Wed 11:36:13 AM 42.5883 -84.2531 161° South 472 543 31,000  Level Cleveland Center
Wed 11:37:15 AM 42.4414 -84.1836 161° South 472 543 31,000  Level Cleveland Center
Wed 11:38:16 AM 42.3192 -84.1250 160° South 471 542 31,000  Level Cleveland Center
Wed 11:39:18 AM 42.1978 -84.0686 161° South 469 540 31,000  Level Cleveland Center
Wed 11:40:20 AM 42.0772 -84.0117 161° South 468 539 31,000  Level Cleveland Center
Wed 11:41:21 AM 41.9564 -83.9564 161° South 466 536 31,000  Level Cleveland Center
Wed 11:42:23 AM 41.8353 -83.9000 161° South 464 534 31,000  Level Cleveland Center
Wed 11:43:24 AM 41.6906 -83.8325 161° South 462 532 31,000 -1,024 Level Cleveland Center
Wed 11:44:26 AM 41.5703 -83.7769 161° South 462 532 28,900 -2,146 Descending Cleveland Center
Wed 11:45:27 AM 41.4522 -83.7231 161° South 457 526 26,600 -2,244 Descending Cleveland Center
Wed 11:46:29 AM 41.3378 -83.6708 161° South 442 509 24,300 -2,732 Descending Cleveland Center
Wed 11:47:30 AM 41.2325 -83.6036 154° Southeast 429 494 21,000 -3,220 Descending Cleveland Center
Wed 11:48:32 AM 41.1458 -83.4975 137° Southeast 427 491 17,700 -3,242 Descending Cleveland Center
Wed 11:49:34 AM 41.0603 -83.3983 139° Southeast 390 449 14,300 -3,171 Descending Cleveland Center
Wed 11:50:35 AM 40.9692 -83.3522 159° South 354 407 11,200 -1,610 Descending Cleveland Center
Wed 11:51:37 AM 40.8808 -83.3344 171° South 326 375 11,000 -98 Descending Cleveland Center
Wed 11:52:38 AM 40.7758 -83.3147 172° South 320 368 11,000 -390 Level Cleveland Center
Wed 11:53:40 AM 40.6881 -83.2972 171° South 318 366 10,200 -484 Descending Cleveland Center
Wed 11:54:42 AM 40.6019 -83.2800 171° South 317 365 10,000 -97 Descending Cleveland Center
Wed 11:55:44 AM 40.5081 -83.2639 173° South 302 348 10,000  Level Indianapolis Center
Wed 11:55:59 AM 40.5017 -83.2597 154° Southeast 309 356 10,000 -575 Level Indianapolis Center
Wed 11:56:57 AM 40.4111 -83.2450 173° South 287 330 9,300 -1,062 Descending Indianapolis Center
Wed 11:57:52 AM 40.3453 -83.2314 171° South 274 315 8,000 -1,569 Descending Indianapolis Center
Wed 11:58:02 AM 40.3311 -83.2239 158° South 279 321 7,600 -2,200 Descending Indianapolis Center
Wed 11:58:52 AM 40.2697 -83.1886 156° South 281 323 5,800 -2,032 Descending Indianapolis Center
Wed 11:59:04 AM 40.2594 -83.1819 154° Southeast 277 319 5,500 -2,459 Descending Indianapolis Center
Wed 11:59:53 AM 40.1981 -83.1469 156° South 278 320 3,300 -2,323 Descending Indianapolis Center
Wed 12:00:06 PM 40.1886 -83.1406 153° Southeast 277 319 3,100 -960 Descending Indianapolis Center
Wed 12:01:08 PM 40.1381 -83.0847 140° Southeast 254 292 2,100 -661 Descending Indianapolis Center
Wed 12:01:55 PM 40.1056 -83.0386 133° Southeast 187 215 1,900 -290 Descending Indianapolis Center
Wed 12:02:10 PM 40.0997 -83.0350 155° Southeast 225 259 1,800 -787 Descending Indianapolis Center
Wed 12:02:56 PM 40.0767 -83.0531 211° Southwest 117 135 1,100 -581 Descending Indianapolis Center
Wed 12:03:12 PM 40.0792 -83.0625 289° West 175 201 1,200 375 Climbing Indianapolis Center
Wed 12:05:00 PM 40.0667 -83.0667 270° West  Level FlightAware Approximate

Login

Don't have an account? Register now (free) for customized features, flight alerts, and more!